createdAt,value
2022-10-18T00:00:20.550Z,30.37
2022-10-18T00:02:47.464Z,31.80
2022-10-18T00:05:14.430Z,28.70
2022-10-18T00:07:41.399Z,28.80
2022-10-18T00:10:10.305Z,28.63
2022-10-18T00:12:38.466Z,29.87
2022-10-18T00:15:08.965Z,26.90
2022-10-18T00:17:38.135Z,25.87
2022-10-18T00:20:06.711Z,28.50
2022-10-18T00:22:36.810Z,29.33
2022-10-18T00:25:05.790Z,27.27
2022-10-18T00:27:34.405Z,28.30
2022-10-18T00:30:01.451Z,28.60
2022-10-18T00:32:28.631Z,26.47
2022-10-18T00:34:55.880Z,29.23
2022-10-18T00:37:22.830Z,30.47
2022-10-18T00:39:49.789Z,29.57
2022-10-18T00:42:19.546Z,28.93
2022-10-18T00:44:46.390Z,30.07
2022-10-18T00:47:18.107Z,28.43
2022-10-18T00:49:50.944Z,26.73
2022-10-18T00:52:43.290Z,28.67
2022-10-18T00:55:11.370Z,27.70
2022-10-18T00:57:42.588Z,29.10
2022-10-18T01:00:11.695Z,29.00
2022-10-18T01:02:41.755Z,27.43
2022-10-18T01:05:15.830Z,29.70
2022-10-18T01:08:01.927Z,26.83
2022-10-18T01:10:50.230Z,28.10
2022-10-18T01:13:44.231Z,27.60
2022-10-18T01:16:40.830Z,27.53
2022-10-18T01:20:02.075Z,24.27
2022-10-18T01:22:40.102Z,26.13
2022-10-18T01:25:35.209Z,24.37
2022-10-18T01:28:13.869Z,25.40
2022-10-18T01:31:30.738Z,22.23
2022-10-18T01:34:04.097Z,21.97
2022-10-18T01:36:42.745Z,22.07
2022-10-18T01:39:19.099Z,21.63
2022-10-18T01:41:48.524Z,22.57
2022-10-18T01:44:22.797Z,22.53
2022-10-18T01:46:51.665Z,20.67
2022-10-18T01:49:18.664Z,23.53
2022-10-18T01:51:45.586Z,23.63
2022-10-18T01:54:20.021Z,20.97
2022-10-18T01:57:01.039Z,22.17
2022-10-18T01:59:53.064Z,20.90
2022-10-18T02:02:29.108Z,21.07
2022-10-18T02:05:20.430Z,19.50
2022-10-18T02:08:24.019Z,22.63
2022-10-18T02:11:18.075Z,22.03
2022-10-18T02:14:13.430Z,20.60
2022-10-18T02:16:52.680Z,21.47
2022-10-18T02:19:33.702Z,23.30
2022-10-18T02:22:02.100Z,22.90
2022-10-18T02:24:39.240Z,23.20
2022-10-18T02:27:06.615Z,23.73
2022-10-18T02:29:34.250Z,25.50
2022-10-18T02:32:47.514Z,26.60
2022-10-18T02:35:31.349Z,23.87
2022-10-18T02:37:59.446Z,25.40
2022-10-18T02:40:27.510Z,24.73
2022-10-18T02:42:58.736Z,25.60
2022-10-18T02:45:27.489Z,24.90
2022-10-18T02:47:54.485Z,24.13
2022-10-18T02:50:21.445Z,23.03
2022-10-18T02:52:48.309Z,23.33
2022-10-18T02:55:17.114Z,23.27
2022-10-18T02:57:44.194Z,24.17
2022-10-18T03:00:12.344Z,23.07
2022-10-18T03:02:39.299Z,23.30
2022-10-18T03:05:06.545Z,26.77
2022-10-18T03:07:33.774Z,22.20
2022-10-18T03:10:01.115Z,22.23
2022-10-18T03:12:28.065Z,23.27
2022-10-18T03:14:54.990Z,21.70
2022-10-18T03:17:21.890Z,22.67
2022-10-18T03:19:48.791Z,21.07
2022-10-18T03:22:15.755Z,20.77
2022-10-18T03:24:43.010Z,21.80
2022-10-18T03:27:10.145Z,20.13
2022-10-18T03:29:37.270Z,21.33
2022-10-18T03:32:04.320Z,18.80
2022-10-18T03:34:31.304Z,20.47
2022-10-18T03:37:00.996Z,20.87
2022-10-18T03:39:30.525Z,21.50
2022-10-18T03:41:57.594Z,20.30
2022-10-18T03:44:24.482Z,21.57
2022-10-18T03:46:51.446Z,19.33
2022-10-18T03:49:18.369Z,21.00
2022-10-18T03:51:45.345Z,19.83
2022-10-18T03:54:12.235Z,21.87
2022-10-18T03:56:39.187Z,19.13
2022-10-18T03:59:06.186Z,21.50
2022-10-18T04:01:33.142Z,19.50
2022-10-18T04:04:00.110Z,21.07
2022-10-18T04:06:27.045Z,17.97
2022-10-18T04:08:55.645Z,19.30
2022-10-18T04:11:22.576Z,19.10
2022-10-18T04:13:50.519Z,18.73
2022-10-18T04:16:17.436Z,20.83
2022-10-18T04:18:44.364Z,21.20
2022-10-18T04:21:11.371Z,21.13
2022-10-18T04:23:38.984Z,20.27
2022-10-18T04:26:07.166Z,21.20
2022-10-18T04:28:35.616Z,19.60
2022-10-18T04:31:02.601Z,19.47
2022-10-18T04:33:29.581Z,20.90
2022-10-18T04:35:56.535Z,21.87
2022-10-18T04:38:23.680Z,19.90
2022-10-18T04:40:50.646Z,19.83
2022-10-18T04:43:17.670Z,18.50
2022-10-18T04:45:48.540Z,18.70
2022-10-18T04:48:16.166Z,19.23
2022-10-18T04:50:43.269Z,20.87
2022-10-18T04:53:10.387Z,18.83
2022-10-18T04:55:37.286Z,18.90
2022-10-18T04:58:04.160Z,19.27
2022-10-18T05:00:31.081Z,19.03
2022-10-18T05:02:58.544Z,17.97
2022-10-18T05:05:33.124Z,19.10
2022-10-18T05:08:13.411Z,16.93
2022-10-18T05:10:40.423Z,15.90
2022-10-18T05:13:07.573Z,20.33
2022-10-18T05:15:34.562Z,18.37
2022-10-18T05:18:01.439Z,17.43
2022-10-18T05:20:28.446Z,18.00
2022-10-18T05:22:55.350Z,16.30
2022-10-18T05:25:22.810Z,16.70
2022-10-18T05:27:49.765Z,15.00
2022-10-18T05:30:16.931Z,15.80
2022-10-18T05:32:43.810Z,14.03
2022-10-18T05:35:11.040Z,14.07
2022-10-18T05:37:37.966Z,15.83
2022-10-18T05:40:05.437Z,16.00
2022-10-18T05:42:32.418Z,17.43
2022-10-18T05:44:59.670Z,14.47
2022-10-18T05:47:26.607Z,17.67
2022-10-18T05:49:53.567Z,15.30
2022-10-18T05:52:20.636Z,16.63
2022-10-18T05:54:47.527Z,16.07
2022-10-18T05:57:14.606Z,17.53
2022-10-18T05:59:41.600Z,18.07
2022-10-18T06:02:11.909Z,16.47
2022-10-18T06:04:38.978Z,17.80
2022-10-18T06:07:11.711Z,17.67
2022-10-18T06:09:39.247Z,16.13
2022-10-18T06:12:09.081Z,15.97
2022-10-18T06:14:37.544Z,17.20
2022-10-18T06:17:05.006Z,16.13
2022-10-18T06:19:32.005Z,17.47
2022-10-18T06:21:58.955Z,16.20
2022-10-18T06:24:26.844Z,20.30
2022-10-18T06:26:53.899Z,18.27
2022-10-18T06:29:20.806Z,19.70
2022-10-18T06:31:47.710Z,19.50
2022-10-18T06:34:14.714Z,21.97
2022-10-18T06:36:41.717Z,21.53
2022-10-18T06:39:08.685Z,21.77
2022-10-18T06:41:35.539Z,19.50
2022-10-18T06:44:09.056Z,20.83
2022-10-18T06:46:35.979Z,21.77
2022-10-18T06:49:02.891Z,22.50
2022-10-18T06:51:29.785Z,24.83
2022-10-18T06:54:16.970Z,24.00
2022-10-18T06:56:43.651Z,20.70
2022-10-18T06:59:10.585Z,23.73
2022-10-18T07:01:37.680Z,21.80
2022-10-18T07:04:04.818Z,22.63
2022-10-18T07:06:31.954Z,21.20
2022-10-18T07:08:59.012Z,24.13
2022-10-18T07:11:27.407Z,23.17
2022-10-18T07:14:04.454Z,21.70
2022-10-18T07:16:33.956Z,22.13
2022-10-18T07:19:01.002Z,28.37
2022-10-18T07:21:28.102Z,25.97
2022-10-18T07:23:55.224Z,27.33
2022-10-18T07:26:33.376Z,26.13
2022-10-18T07:29:07.180Z,26.87
2022-10-18T07:31:35.561Z,28.40
2022-10-18T07:34:05.271Z,24.67
2022-10-18T07:36:32.631Z,27.30
2022-10-18T07:39:00.001Z,28.50
2022-10-18T07:41:27.324Z,25.87
2022-10-18T07:43:54.231Z,23.40
2022-10-18T07:46:22.707Z,26.17
2022-10-18T07:48:51.089Z,26.80
2022-10-18T07:51:20.457Z,24.23
2022-10-18T07:53:47.736Z,26.00
2022-10-18T07:56:21.458Z,25.53
2022-10-18T07:58:52.747Z,23.90
2022-10-18T08:01:21.848Z,23.77
2022-10-18T08:03:49.897Z,25.57
2022-10-18T08:06:19.779Z,25.40
2022-10-18T08:08:48.309Z,28.07
2022-10-18T08:11:19.778Z,30.13
2022-10-18T08:13:47.334Z,24.40
2022-10-18T08:16:19.031Z,26.43
2022-10-18T08:18:46.390Z,26.07
2022-10-18T08:21:16.461Z,26.50
2022-10-18T08:23:44.125Z,25.77
2022-10-18T08:26:17.791Z,26.00
2022-10-18T08:28:53.728Z,24.47
2022-10-18T08:31:21.263Z,24.70
2022-10-18T08:33:48.215Z,27.77
2022-10-18T08:36:17.245Z,25.37
2022-10-18T08:38:44.872Z,29.37
2022-10-18T08:41:42.627Z,23.90
2022-10-18T08:44:27.721Z,21.20
2022-10-18T08:47:17.453Z,20.20
2022-10-18T08:50:00.870Z,21.73
2022-10-18T08:52:36.486Z,20.63
2022-10-18T08:55:25.900Z,19.83
2022-10-18T08:57:53.315Z,21.70
2022-10-18T09:00:24.321Z,21.87
2022-10-18T09:03:29.400Z,21.57
2022-10-18T09:06:29.605Z,21.87
2022-10-18T09:09:16.682Z,20.90
2022-10-18T09:12:01.168Z,20.47
2022-10-18T09:15:01.816Z,20.80
2022-10-18T09:17:53.606Z,21.70
2022-10-18T09:20:45.586Z,21.97
2022-10-18T09:23:23.311Z,21.57
2022-10-18T09:26:20.005Z,19.07
2022-10-18T09:29:32.973Z,18.57
2022-10-18T09:32:23.377Z,18.80
2022-10-18T09:35:27.705Z,18.50
2022-10-18T09:38:04.570Z,19.50
2022-10-18T09:40:39.380Z,20.60
2022-10-18T09:43:33.834Z,20.30
2022-10-18T09:46:03.172Z,21.60
2022-10-18T09:49:00.820Z,21.93
2022-10-18T09:51:35.331Z,21.50
2022-10-18T09:54:20.909Z,21.60
2022-10-18T09:59:36.627Z,20.77
2022-10-18T10:02:04.861Z,20.80
2022-10-18T10:04:31.817Z,21.27
2022-10-18T10:07:02.267Z,20.43
2022-10-18T10:09:37.742Z,21.50
2022-10-18T10:12:05.129Z,19.73
2022-10-18T10:14:44.643Z,19.33
2022-10-18T10:17:31.402Z,19.87
2022-10-18T10:20:15.745Z,20.03
2022-10-18T10:22:45.546Z,19.13
2022-10-18T10:25:38.420Z,19.33
2022-10-18T10:28:14.647Z,18.40
2022-10-18T10:30:41.546Z,19.27
2022-10-18T10:33:37.472Z,21.90
2022-10-18T10:36:19.603Z,19.10
2022-10-18T10:39:08.582Z,20.60
2022-10-18T10:41:35.842Z,20.87
2022-10-18T10:44:05.703Z,20.70
2022-10-18T10:46:37.083Z,19.67
2022-10-18T10:49:38.083Z,20.70
2022-10-18T10:52:29.325Z,20.60
2022-10-18T10:55:16.730Z,20.93
2022-10-18T10:57:51.339Z,18.37
2022-10-18T11:00:45.041Z,17.77
2022-10-18T11:03:31.182Z,16.73
2022-10-18T11:06:01.156Z,16.63
2022-10-18T11:08:37.671Z,17.83
2022-10-18T11:11:30.881Z,17.40
2022-10-18T11:14:26.128Z,18.37
2022-10-18T11:17:34.917Z,16.77
2022-10-18T11:20:09.985Z,16.87
2022-10-18T11:22:52.637Z,17.60
2022-10-18T11:25:25.541Z,16.27
2022-10-18T11:28:05.838Z,17.07
2022-10-18T11:30:53.446Z,18.00
2022-10-18T11:34:15.577Z,16.53
2022-10-18T11:37:37.464Z,15.77
2022-10-18T11:40:27.181Z,16.50
2022-10-18T11:43:02.980Z,16.67
2022-10-18T11:45:43.761Z,16.80
2022-10-18T11:48:34.958Z,15.50
2022-10-18T11:51:33.994Z,15.23
2022-10-18T11:54:28.708Z,15.17
2022-10-18T11:57:38.629Z,15.63
2022-10-18T12:00:30.810Z,14.50
2022-10-18T12:03:14.659Z,14.50
2022-10-18T12:05:45.185Z,15.70
2022-10-18T12:08:35.480Z,15.63
2022-10-18T12:11:13.161Z,15.57
2022-10-18T12:13:57.826Z,15.53
2022-10-18T12:16:50.079Z,14.20
2022-10-18T12:19:28.009Z,15.67
2022-10-18T12:22:23.621Z,15.33
2022-10-18T12:24:50.846Z,14.90
2022-10-18T12:27:19.358Z,15.00
2022-10-18T12:30:04.460Z,14.30
2022-10-18T12:32:36.570Z,14.93
2022-10-18T12:35:15.391Z,13.90
2022-10-18T12:38:06.200Z,12.90
2022-10-18T12:40:45.420Z,13.00
2022-10-18T12:43:25.365Z,13.40
2022-10-18T12:45:57.711Z,13.63
2022-10-18T12:48:42.700Z,13.53
2022-10-18T12:51:15.470Z,12.87
2022-10-18T12:53:46.120Z,12.50
2022-10-18T12:56:28.354Z,11.10
2022-10-18T12:59:16.729Z,11.93
2022-10-18T13:01:55.547Z,12.13
2022-10-18T13:04:28.660Z,11.23
2022-10-18T13:06:58.327Z,12.00
2022-10-18T13:09:29.889Z,12.10
2022-10-18T13:12:11.169Z,11.07
2022-10-18T13:15:27.121Z,10.77
2022-10-18T13:18:06.000Z,10.97
2022-10-18T13:20:48.491Z,10.40
2022-10-18T13:23:43.290Z,10.30
2022-10-18T13:27:04.003Z,10.03
2022-10-18T13:30:16.351Z,9.00
2022-10-18T13:33:04.070Z,9.63
2022-10-18T13:35:55.523Z,9.03
2022-10-18T13:38:55.880Z,9.47
2022-10-18T13:41:30.254Z,8.93
2022-10-18T13:44:03.255Z,8.80
2022-10-18T13:46:32.945Z,8.67
2022-10-18T13:49:48.983Z,8.90
2022-10-18T13:52:49.370Z,8.03
2022-10-18T13:55:31.296Z,8.40
2022-10-18T13:58:04.110Z,8.30
2022-10-18T14:00:49.511Z,8.07
2022-10-18T14:03:56.881Z,7.40
2022-10-18T14:06:33.870Z,8.20
2022-10-18T14:09:25.467Z,9.60
2022-10-18T14:12:15.231Z,8.47
2022-10-18T14:15:06.224Z,9.17
2022-10-18T14:17:49.395Z,7.80
2022-10-18T14:20:29.954Z,8.20
2022-10-18T14:23:16.099Z,8.60
2022-10-18T14:25:43.689Z,7.67
2022-10-18T14:28:31.412Z,8.60
2022-10-18T14:31:11.789Z,8.93
2022-10-18T14:33:57.093Z,8.07
2022-10-18T14:36:29.454Z,7.20
2022-10-18T14:39:05.892Z,7.67
2022-10-18T14:41:37.022Z,6.03
2022-10-18T14:44:15.437Z,6.00
2022-10-18T14:46:45.054Z,7.00
2022-10-18T14:49:14.161Z,6.80
2022-10-18T14:51:44.087Z,6.57
2022-10-18T14:54:34.581Z,6.70
2022-10-18T14:57:04.051Z,7.10
2022-10-18T14:59:52.026Z,7.37
2022-10-18T15:02:26.648Z,7.50
2022-10-18T15:05:07.800Z,7.07
2022-10-18T15:07:36.700Z,7.20
2022-10-18T15:10:05.514Z,6.37
2022-10-18T15:12:36.994Z,6.50
2022-10-18T15:15:27.214Z,6.07
2022-10-18T15:17:55.280Z,8.03
2022-10-18T15:20:32.083Z,7.00
2022-10-18T15:23:31.549Z,7.60
2022-10-18T15:26:13.302Z,6.40
2022-10-18T15:28:58.728Z,7.70
2022-10-18T15:31:34.470Z,6.87
2022-10-18T15:34:18.102Z,7.40
2022-10-18T15:36:46.577Z,8.20
2022-10-18T15:39:30.766Z,8.10
2022-10-18T15:41:59.961Z,7.20
2022-10-18T15:44:34.913Z,6.77
2022-10-18T15:47:23.762Z,7.47
2022-10-18T15:50:04.701Z,8.63
2022-10-18T15:52:38.783Z,7.50
2022-10-18T15:55:30.836Z,8.37
2022-10-18T15:58:19.732Z,7.60
2022-10-18T16:00:48.190Z,7.40
2022-10-18T16:03:18.241Z,7.03
2022-10-18T16:05:45.921Z,8.33
2022-10-18T16:08:25.577Z,8.97
2022-10-18T16:10:52.986Z,9.60
2022-10-18T16:13:20.172Z,9.77
2022-10-18T16:15:47.502Z,9.33
2022-10-18T16:18:18.743Z,9.27
2022-10-18T16:20:48.511Z,10.80
2022-10-18T16:23:22.859Z,9.67
2022-10-18T16:25:50.801Z,9.93
2022-10-18T16:28:23.232Z,10.13
2022-10-18T16:31:04.167Z,9.83
2022-10-18T16:33:31.652Z,11.20
2022-10-18T16:35:59.892Z,9.93
2022-10-18T16:38:36.572Z,10.60
2022-10-18T16:41:06.757Z,10.00
2022-10-18T16:43:35.287Z,10.53
2022-10-18T16:46:04.992Z,11.97
2022-10-18T16:48:32.281Z,12.00
2022-10-18T16:50:59.843Z,13.50
2022-10-18T16:53:28.195Z,16.77
2022-10-18T16:56:01.576Z,13.43
2022-10-18T16:58:30.922Z,14.50
2022-10-18T17:01:00.989Z,14.13
2022-10-18T17:03:29.948Z,26.03
2022-10-18T17:05:57.004Z,27.50
2022-10-18T17:08:28.235Z,26.77
2022-10-18T17:10:59.111Z,25.07
2022-10-18T17:13:26.929Z,20.00
2022-10-18T17:15:54.503Z,19.87
2022-10-18T17:18:28.192Z,19.53
2022-10-18T17:20:55.332Z,20.57
2022-10-18T17:23:22.491Z,14.70
2022-10-18T17:26:04.777Z,13.10
2022-10-18T17:28:34.281Z,13.23
2022-10-18T17:31:01.311Z,13.37
2022-10-18T17:33:28.261Z,12.73
2022-10-18T17:35:55.261Z,13.10
2022-10-18T17:38:22.205Z,22.03
2022-10-18T17:40:49.297Z,22.60
2022-10-18T17:43:16.222Z,22.70
2022-10-18T17:45:54.011Z,22.00
2022-10-18T17:48:21.881Z,22.40
2022-10-18T17:50:48.844Z,19.03
2022-10-18T17:53:22.621Z,21.00
2022-10-18T17:55:49.782Z,18.80
2022-10-18T17:58:17.271Z,25.90
2022-10-18T18:00:44.252Z,25.23
2022-10-18T18:03:11.334Z,21.43
2022-10-18T18:05:38.302Z,20.60
2022-10-18T18:08:05.448Z,18.60
2022-10-18T18:10:34.481Z,17.63
2022-10-18T18:13:02.548Z,17.00
2022-10-18T18:15:29.781Z,18.33
2022-10-18T18:17:58.306Z,16.23
2022-10-18T18:20:26.805Z,15.47
2022-10-18T18:22:53.824Z,16.00
2022-10-18T18:25:21.381Z,16.67
2022-10-18T18:27:48.332Z,16.40
2022-10-18T18:30:18.112Z,15.90
2022-10-18T18:32:45.354Z,17.83
2022-10-18T18:35:12.381Z,18.60
2022-10-18T18:37:39.369Z,17.87
2022-10-18T18:40:07.544Z,19.13
2022-10-18T18:42:34.809Z,16.67
2022-10-18T18:45:02.058Z,17.90
2022-10-18T18:47:29.073Z,16.77
2022-10-18T18:49:56.083Z,17.83
2022-10-18T18:52:23.052Z,16.67
2022-10-18T18:54:50.021Z,17.80
2022-10-18T18:57:17.586Z,18.07
2022-10-18T18:59:44.502Z,17.97
2022-10-18T19:02:11.461Z,18.60
2022-10-18T19:04:39.472Z,17.37
2022-10-18T19:07:06.431Z,22.90
2022-10-18T19:09:33.512Z,23.80
2022-10-18T19:12:00.541Z,21.83
2022-10-18T19:14:29.193Z,22.80
2022-10-18T19:16:59.776Z,21.47
2022-10-18T19:19:30.183Z,19.30
2022-10-18T19:22:08.528Z,18.77
2022-10-18T19:24:35.862Z,17.30
2022-10-18T19:27:12.760Z,17.37
2022-10-18T19:29:41.583Z,20.50
2022-10-18T19:32:15.205Z,23.03
2022-10-18T19:34:43.624Z,20.73
2022-10-18T19:37:18.318Z,19.63
2022-10-18T19:39:45.482Z,20.27
2022-10-18T19:42:18.597Z,17.83
2022-10-18T19:44:49.753Z,18.30
2022-10-18T19:47:16.823Z,18.63
2022-10-18T19:49:43.864Z,17.87
2022-10-18T19:52:12.550Z,20.30
2022-10-18T19:54:39.859Z,18.30
2022-10-18T19:57:07.187Z,18.30
2022-10-18T19:59:36.671Z,19.23
2022-10-18T20:02:05.283Z,21.10
2022-10-18T20:04:35.106Z,18.30
2022-10-18T20:07:02.891Z,17.97
2022-10-18T20:09:30.217Z,18.47
2022-10-18T20:11:57.157Z,16.90
2022-10-18T20:14:24.267Z,18.17
2022-10-18T20:16:51.131Z,16.73
2022-10-18T20:19:18.219Z,15.73
2022-10-18T20:21:45.137Z,15.30
2022-10-18T20:24:12.337Z,16.10
2022-10-18T20:26:39.939Z,16.57
2022-10-18T20:29:08.343Z,15.70
2022-10-18T20:31:39.133Z,13.90
2022-10-18T20:34:11.794Z,17.63
2022-10-18T20:36:39.948Z,16.27
2022-10-18T20:39:07.219Z,18.50
2022-10-18T20:41:41.174Z,17.93
2022-10-18T20:44:14.713Z,16.83
2022-10-18T20:46:42.051Z,16.57
2022-10-18T20:49:14.678Z,16.37
2022-10-18T20:51:42.269Z,17.13
2022-10-18T20:54:10.609Z,17.30
2022-10-18T20:56:38.984Z,17.80
2022-10-18T20:59:09.838Z,17.40
2022-10-18T21:01:38.938Z,16.97
2022-10-18T21:04:08.764Z,17.40
2022-10-18T21:06:40.737Z,17.17
2022-10-18T21:09:14.098Z,16.20
2022-10-18T21:11:45.326Z,16.63
2022-10-18T21:14:19.250Z,16.33
2022-10-18T21:16:47.055Z,16.17
2022-10-18T21:19:22.390Z,16.07
2022-10-18T21:21:54.487Z,16.80
2022-10-18T21:24:24.114Z,18.60
2022-10-18T21:26:51.103Z,20.87
2022-10-18T21:29:21.869Z,22.37
2022-10-18T21:31:49.390Z,20.20
2022-10-18T21:34:17.689Z,19.73
2022-10-18T21:36:47.559Z,19.67
2022-10-18T21:39:18.578Z,20.03
2022-10-18T21:41:46.510Z,20.67
2022-10-18T21:44:14.195Z,21.13
2022-10-18T21:46:46.888Z,20.97
2022-10-18T21:49:15.160Z,20.83
2022-10-18T21:51:42.876Z,22.50
2022-10-18T21:54:15.779Z,20.57
2022-10-18T21:56:43.470Z,21.00
2022-10-18T21:59:14.294Z,20.10
2022-10-18T22:01:42.784Z,21.57
2022-10-18T22:04:23.030Z,19.10
2022-10-18T22:06:50.933Z,20.40
2022-10-18T22:09:18.649Z,20.70
2022-10-18T22:11:51.714Z,21.37
2022-10-18T22:14:18.800Z,20.30
2022-10-18T22:16:45.710Z,18.87
2022-10-18T22:19:13.387Z,19.50
2022-10-18T22:21:40.502Z,20.20
2022-10-18T22:24:10.259Z,17.77
2022-10-18T22:26:40.883Z,17.30
2022-10-18T22:29:16.489Z,17.50
2022-10-18T22:31:51.121Z,16.60
2022-10-18T22:34:22.584Z,18.20
2022-10-18T22:36:50.666Z,17.57
2022-10-18T22:39:18.404Z,17.07
2022-10-18T22:41:46.573Z,18.37
2022-10-18T22:44:15.099Z,18.50
2022-10-18T22:46:43.221Z,18.10
2022-10-18T22:49:12.273Z,17.90
2022-10-18T22:51:40.728Z,17.50
2022-10-18T22:54:08.594Z,19.10
2022-10-18T22:56:35.532Z,18.47
2022-10-18T22:59:02.520Z,18.70
2022-10-18T23:01:29.624Z,16.93
2022-10-18T23:03:59.057Z,17.20
2022-10-18T23:06:30.014Z,18.25
2022-10-18T23:08:59.889Z,18.37
2022-10-18T23:11:28.888Z,17.47
2022-10-18T23:13:55.839Z,17.63
2022-10-18T23:16:23.870Z,17.30
2022-10-18T23:18:56.098Z,17.67
2022-10-18T23:21:25.336Z,16.07
2022-10-18T23:23:53.799Z,16.80
2022-10-18T23:26:24.677Z,17.13
2022-10-18T23:28:53.059Z,18.20
2022-10-18T23:31:30.414Z,16.87
2022-10-18T23:34:01.325Z,18.00
2022-10-18T23:36:28.884Z,16.27
2022-10-18T23:38:56.479Z,17.20
2022-10-18T23:41:24.570Z,18.37
2022-10-18T23:43:52.879Z,17.60
2022-10-18T23:46:21.049Z,17.47
2022-10-18T23:48:48.809Z,17.27
2022-10-18T23:51:16.980Z,19.17
2022-10-18T23:53:44.019Z,17.87
2022-10-18T23:56:15.816Z,18.80
2022-10-18T23:58:44.403Z,18.97
